sensor_id;sensor_type;location;lat;lon;timestamp;P1;durP1;ratioP1;P2;durP2;ratioP2
38479;SDS011;62333;51.980;5.934;2024-03-25T00:01:14;5.20;;;1.20;;
38479;SDS011;62333;51.980;5.934;2024-03-25T00:03:39;12.88;;;2.78;;
38479;SDS011;62333;51.980;5.934;2024-03-25T00:06:05;10.80;;;2.00;;
38479;SDS011;62333;51.980;5.934;2024-03-25T00:08:31;12.93;;;2.80;;
38479;SDS011;62333;51.980;5.934;2024-03-25T00:10:57;5.18;;;0.88;;
38479;SDS011;62333;51.980;5.934;2024-03-25T00:13:23;8.77;;;2.10;;
38479;SDS011;62333;51.980;5.934;2024-03-25T00:15:48;7.00;;;2.10;;
38479;SDS011;62333;51.980;5.934;2024-03-25T00:18:14;5.93;;;1.27;;
38479;SDS011;62333;51.980;5.934;2024-03-25T00:20:40;17.33;;;1.73;;
38479;SDS011;62333;51.980;5.934;2024-03-25T00:23:06;13.18;;;3.42;;
38479;SDS011;62333;51.980;5.934;2024-03-25T00:25:32;6.25;;;1.33;;
38479;SDS011;62333;51.980;5.934;2024-03-25T00:27:58;9.88;;;1.40;;
38479;SDS011;62333;51.980;5.934;2024-03-25T00:30:23;22.50;;;2.65;;
38479;SDS011;62333;51.980;5.934;2024-03-25T00:32:49;12.25;;;2.13;;
38479;SDS011;62333;51.980;5.934;2024-03-25T00:35:15;7.80;;;1.35;;
38479;SDS011;62333;51.980;5.934;2024-03-25T00:37:41;11.82;;;1.65;;
38479;SDS011;62333;51.980;5.934;2024-03-25T00:40:07;8.57;;;2.10;;
38479;SDS011;62333;51.980;5.934;2024-03-25T00:42:33;10.55;;;2.65;;
38479;SDS011;62333;51.980;5.934;2024-03-25T00:44:59;8.88;;;1.80;;
38479;SDS011;62333;51.980;5.934;2024-03-25T00:47:26;10.55;;;2.50;;
38479;SDS011;62333;51.980;5.934;2024-03-25T00:49:51;8.90;;;1.83;;
38479;SDS011;62333;51.980;5.934;2024-03-25T00:52:18;7.70;;;1.25;;
38479;SDS011;62333;51.980;5.934;2024-03-25T00:54:43;11.15;;;3.05;;
38479;SDS011;62333;51.980;5.934;2024-03-25T00:57:09;10.27;;;1.65;;
38479;SDS011;62333;51.980;5.934;2024-03-25T00:59:37;10.10;;;1.42;;
38479;SDS011;62333;51.980;5.934;2024-03-25T01:02:02;11.73;;;2.30;;
38479;SDS011;62333;51.980;5.934;2024-03-25T01:04:28;10.65;;;2.58;;
38479;SDS011;62333;51.980;5.934;2024-03-25T01:06:54;9.48;;;1.42;;
38479;SDS011;62333;51.980;5.934;2024-03-25T01:09:19;8.80;;;1.58;;
38479;SDS011;62333;51.980;5.934;2024-03-25T01:11:46;8.55;;;1.35;;
38479;SDS011;62333;51.980;5.934;2024-03-25T01:14:12;4.75;;;1.02;;
38479;SDS011;62333;51.980;5.934;2024-03-25T01:16:38;7.38;;;2.33;;
38479;SDS011;62333;51.980;5.934;2024-03-25T01:19:04;9.68;;;2.28;;
38479;SDS011;62333;51.980;5.934;2024-03-25T01:21:29;6.22;;;1.27;;
38479;SDS011;62333;51.980;5.934;2024-03-25T01:23:55;8.32;;;2.78;;
38479;SDS011;62333;51.980;5.934;2024-03-25T01:26:21;10.73;;;2.25;;
38479;SDS011;62333;51.980;5.934;2024-03-25T01:28:47;4.43;;;1.25;;
38479;SDS011;62333;51.980;5.934;2024-03-25T01:31:12;8.25;;;2.03;;
38479;SDS011;62333;51.980;5.934;2024-03-25T01:33:39;8.57;;;1.13;;
38479;SDS011;62333;51.980;5.934;2024-03-25T01:36:04;16.48;;;2.15;;
38479;SDS011;62333;51.980;5.934;2024-03-25T01:38:30;6.63;;;2.35;;
38479;SDS011;62333;51.980;5.934;2024-03-25T01:41:06;11.98;;;2.95;;
38479;SDS011;62333;51.980;5.934;2024-03-25T01:43:36;10.57;;;1.52;;
38479;SDS011;62333;51.980;5.934;2024-03-25T01:46:02;12.65;;;2.35;;
38479;SDS011;62333;51.980;5.934;2024-03-25T01:48:28;11.38;;;2.63;;
38479;SDS011;62333;51.980;5.934;2024-03-25T01:50:53;7.05;;;1.33;;
38479;SDS011;62333;51.980;5.934;2024-03-25T01:53:20;13.18;;;2.88;;
38479;SDS011;62333;51.980;5.934;2024-03-25T01:55:46;12.23;;;2.67;;
38479;SDS011;62333;51.980;5.934;2024-03-25T01:58:13;12.02;;;3.28;;
38479;SDS011;62333;51.980;5.934;2024-03-25T02:00:40;14.55;;;2.03;;
38479;SDS011;62333;51.980;5.934;2024-03-25T02:03:06;12.40;;;2.45;;
38479;SDS011;62333;51.980;5.934;2024-03-25T02:05:31;13.23;;;3.55;;
38479;SDS011;62333;51.980;5.934;2024-03-25T02:07:59;9.20;;;2.22;;
38479;SDS011;62333;51.980;5.934;2024-03-25T02:10:26;12.80;;;1.77;;
38479;SDS011;62333;51.980;5.934;2024-03-25T02:12:52;14.27;;;2.00;;
38479;SDS011;62333;51.980;5.934;2024-03-25T02:15:19;10.43;;;3.00;;
38479;SDS011;62333;51.980;5.934;2024-03-25T02:17:44;15.23;;;2.38;;
38479;SDS011;62333;51.980;5.934;2024-03-25T02:20:10;14.70;;;3.55;;
38479;SDS011;62333;51.980;5.934;2024-03-25T02:22:37;9.57;;;2.08;;
38479;SDS011;62333;51.980;5.934;2024-03-25T02:25:08;14.27;;;2.95;;
38479;SDS011;62333;51.980;5.934;2024-03-25T02:27:36;14.80;;;3.22;;
38479;SDS011;62333;51.980;5.934;2024-03-25T02:30:05;18.63;;;3.17;;
38479;SDS011;62333;51.980;5.934;2024-03-25T02:32:36;12.80;;;1.92;;
38479;SDS011;62333;51.980;5.934;2024-03-25T02:35:02;14.95;;;2.08;;
38479;SDS011;62333;51.980;5.934;2024-03-25T02:37:30;18.23;;;3.40;;
38479;SDS011;62333;51.980;5.934;2024-03-25T02:39:57;10.13;;;3.45;;
38479;SDS011;62333;51.980;5.934;2024-03-25T02:42:27;9.50;;;1.45;;
38479;SDS011;62333;51.980;5.934;2024-03-25T02:44:57;10.77;;;2.03;;
38479;SDS011;62333;51.980;5.934;2024-03-25T02:47:23;12.90;;;2.47;;
38479;SDS011;62333;51.980;5.934;2024-03-25T02:49:49;13.15;;;1.60;;
38479;SDS011;62333;51.980;5.934;2024-03-25T02:52:15;18.05;;;1.80;;
38479;SDS011;62333;51.980;5.934;2024-03-25T02:54:41;14.77;;;3.03;;
38479;SDS011;62333;51.980;5.934;2024-03-25T02:57:06;19.80;;;3.28;;
38479;SDS011;62333;51.980;5.934;2024-03-25T02:59:32;9.70;;;2.17;;
38479;SDS011;62333;51.980;5.934;2024-03-25T03:01:57;10.05;;;2.13;;
38479;SDS011;62333;51.980;5.934;2024-03-25T03:04:23;10.23;;;1.70;;
38479;SDS011;62333;51.980;5.934;2024-03-25T03:06:49;17.35;;;3.80;;
38479;SDS011;62333;51.980;5.934;2024-03-25T03:09:14;11.07;;;3.25;;
38479;SDS011;62333;51.980;5.934;2024-03-25T03:11:40;7.60;;;0.98;;
38479;SDS011;62333;51.980;5.934;2024-03-25T03:14:06;7.65;;;2.28;;
38479;SDS011;62333;51.980;5.934;2024-03-25T03:16:32;16.08;;;3.45;;
38479;SDS011;62333;51.980;5.934;2024-03-25T03:18:57;15.80;;;3.17;;
38479;SDS011;62333;51.980;5.934;2024-03-25T03:21:23;31.95;;;5.90;;
38479;SDS011;62333;51.980;5.934;2024-03-25T03:23:49;11.70;;;1.77;;
38479;SDS011;62333;51.980;5.934;2024-03-25T03:26:14;11.25;;;2.17;;
38479;SDS011;62333;51.980;5.934;2024-03-25T03:28:40;7.82;;;1.85;;
38479;SDS011;62333;51.980;5.934;2024-03-25T03:31:06;16.38;;;2.60;;
38479;SDS011;62333;51.980;5.934;2024-03-25T03:33:32;10.82;;;2.17;;
38479;SDS011;62333;51.980;5.934;2024-03-25T03:35:57;11.80;;;1.52;;
38479;SDS011;62333;51.980;5.934;2024-03-25T03:38:23;11.68;;;2.15;;
38479;SDS011;62333;51.980;5.934;2024-03-25T03:40:58;14.43;;;1.33;;
38479;SDS011;62333;51.980;5.934;2024-03-25T03:43:24;14.52;;;2.03;;
38479;SDS011;62333;51.980;5.934;2024-03-25T03:45:50;10.40;;;2.53;;
38479;SDS011;62333;51.980;5.934;2024-03-25T03:48:16;12.45;;;2.17;;
38479;SDS011;62333;51.980;5.934;2024-03-25T03:50:42;10.30;;;1.45;;
38479;SDS011;62333;51.980;5.934;2024-03-25T03:53:08;8.85;;;1.58;;
38479;SDS011;62333;51.980;5.934;2024-03-25T03:55:33;10.27;;;1.50;;
38479;SDS011;62333;51.980;5.934;2024-03-25T03:57:59;10.32;;;2.42;;
38479;SDS011;62333;51.980;5.934;2024-03-25T04:00:25;16.05;;;2.60;;
38479;SDS011;62333;51.980;5.934;2024-03-25T04:02:50;12.88;;;2.25;;
38479;SDS011;62333;51.980;5.934;2024-03-25T04:05:16;12.15;;;2.47;;
38479;SDS011;62333;51.980;5.934;2024-03-25T04:07:41;11.52;;;3.60;;
38479;SDS011;62333;51.980;5.934;2024-03-25T04:10:08;8.73;;;1.80;;
38479;SDS011;62333;51.980;5.934;2024-03-25T04:12:34;13.18;;;2.00;;
38479;SDS011;62333;51.980;5.934;2024-03-25T04:15:01;15.35;;;3.13;;
38479;SDS011;62333;51.980;5.934;2024-03-25T04:17:28;13.98;;;1.75;;
38479;SDS011;62333;51.980;5.934;2024-03-25T04:19:53;8.93;;;2.20;;
38479;SDS011;62333;51.980;5.934;2024-03-25T04:22:19;11.57;;;1.70;;
38479;SDS011;62333;51.980;5.934;2024-03-25T04:24:44;14.52;;;3.70;;
38479;SDS011;62333;51.980;5.934;2024-03-25T04:27:10;9.20;;;2.17;;
38479;SDS011;62333;51.980;5.934;2024-03-25T04:29:36;13.45;;;3.13;;
38479;SDS011;62333;51.980;5.934;2024-03-25T04:32:01;10.73;;;1.73;;
38479;SDS011;62333;51.980;5.934;2024-03-25T04:34:28;10.98;;;1.83;;
38479;SDS011;62333;51.980;5.934;2024-03-25T04:36:54;17.17;;;3.38;;
38479;SDS011;62333;51.980;5.934;2024-03-25T04:39:21;13.00;;;3.92;;
38479;SDS011;62333;51.980;5.934;2024-03-25T04:41:47;20.77;;;4.10;;
38479;SDS011;62333;51.980;5.934;2024-03-25T04:44:13;11.82;;;2.42;;
38479;SDS011;62333;51.980;5.934;2024-03-25T04:46:39;11.70;;;4.05;;
38479;SDS011;62333;51.980;5.934;2024-03-25T04:49:04;9.60;;;2.20;;
38479;SDS011;62333;51.980;5.934;2024-03-25T04:51:30;9.65;;;2.50;;
38479;SDS011;62333;51.980;5.934;2024-03-25T04:53:56;9.15;;;1.98;;
38479;SDS011;62333;51.980;5.934;2024-03-25T04:56:22;16.65;;;3.78;;
38479;SDS011;62333;51.980;5.934;2024-03-25T04:58:48;14.57;;;3.45;;
38479;SDS011;62333;51.980;5.934;2024-03-25T05:01:13;10.65;;;3.15;;
38479;SDS011;62333;51.980;5.934;2024-03-25T05:03:39;8.82;;;3.35;;
38479;SDS011;62333;51.980;5.934;2024-03-25T05:06:05;10.60;;;2.88;;
38479;SDS011;62333;51.980;5.934;2024-03-25T05:08:30;26.27;;;4.30;;
38479;SDS011;62333;51.980;5.934;2024-03-25T05:10:56;15.30;;;2.72;;
38479;SDS011;62333;51.980;5.934;2024-03-25T05:13:22;8.85;;;2.60;;
38479;SDS011;62333;51.980;5.934;2024-03-25T05:15:51;14.13;;;2.92;;
38479;SDS011;62333;51.980;5.934;2024-03-25T05:18:17;9.38;;;2.70;;
38479;SDS011;62333;51.980;5.934;2024-03-25T05:20:43;11.57;;;4.25;;
38479;SDS011;62333;51.980;5.934;2024-03-25T05:23:09;8.27;;;2.85;;
38479;SDS011;62333;51.980;5.934;2024-03-25T05:25:35;12.32;;;2.83;;
38479;SDS011;62333;51.980;5.934;2024-03-25T05:28:01;10.82;;;2.47;;
38479;SDS011;62333;51.980;5.934;2024-03-25T05:30:27;8.30;;;2.55;;
38479;SDS011;62333;51.980;5.934;2024-03-25T05:32:53;16.65;;;4.15;;
38479;SDS011;62333;51.980;5.934;2024-03-25T05:35:18;12.40;;;3.08;;
38479;SDS011;62333;51.980;5.934;2024-03-25T05:37:44;14.25;;;3.83;;
38479;SDS011;62333;51.980;5.934;2024-03-25T05:40:10;10.88;;;2.65;;
38479;SDS011;62333;51.980;5.934;2024-03-25T05:42:36;21.10;;;3.85;;
38479;SDS011;62333;51.980;5.934;2024-03-25T05:45:02;8.65;;;4.38;;
38479;SDS011;62333;51.980;5.934;2024-03-25T05:47:28;14.82;;;4.57;;
38479;SDS011;62333;51.980;5.934;2024-03-25T05:49:54;13.93;;;3.20;;
38479;SDS011;62333;51.980;5.934;2024-03-25T05:52:19;13.98;;;3.42;;
38479;SDS011;62333;51.980;5.934;2024-03-25T05:54:45;12.52;;;2.53;;
38479;SDS011;62333;51.980;5.934;2024-03-25T05:57:11;10.13;;;2.72;;
38479;SDS011;62333;51.980;5.934;2024-03-25T05:59:36;8.45;;;2.33;;
38479;SDS011;62333;51.980;5.934;2024-03-25T06:02:02;15.75;;;3.13;;
38479;SDS011;62333;51.980;5.934;2024-03-25T06:04:28;11.57;;;3.25;;
38479;SDS011;62333;51.980;5.934;2024-03-25T06:06:53;14.07;;;2.88;;
38479;SDS011;62333;51.980;5.934;2024-03-25T06:09:19;13.43;;;2.70;;
38479;SDS011;62333;51.980;5.934;2024-03-25T06:11:44;9.35;;;3.85;;
38479;SDS011;62333;51.980;5.934;2024-03-25T06:14:10;17.40;;;3.35;;
38479;SDS011;62333;51.980;5.934;2024-03-25T06:16:36;12.15;;;3.08;;
38479;SDS011;62333;51.980;5.934;2024-03-25T06:19:01;10.80;;;2.33;;
38479;SDS011;62333;51.980;5.934;2024-03-25T06:21:27;17.08;;;3.67;;
38479;SDS011;62333;51.980;5.934;2024-03-25T06:23:53;10.48;;;2.83;;
38479;SDS011;62333;51.980;5.934;2024-03-25T06:26:19;13.00;;;3.78;;
38479;SDS011;62333;51.980;5.934;2024-03-25T06:28:45;9.55;;;2.42;;
38479;SDS011;62333;51.980;5.934;2024-03-25T06:31:11;16.42;;;3.20;;
38479;SDS011;62333;51.980;5.934;2024-03-25T06:33:55;20.13;;;3.30;;
38479;SDS011;62333;51.980;5.934;2024-03-25T06:36:39;17.02;;;2.97;;
38479;SDS011;62333;51.980;5.934;2024-03-25T06:39:05;12.13;;;3.85;;
38479;SDS011;62333;51.980;5.934;2024-03-25T06:41:31;13.50;;;1.90;;
38479;SDS011;62333;51.980;5.934;2024-03-25T06:43:57;13.10;;;2.72;;
38479;SDS011;62333;51.980;5.934;2024-03-25T06:46:22;9.90;;;1.85;;
38479;SDS011;62333;51.980;5.934;2024-03-25T06:48:48;14.82;;;1.98;;
38479;SDS011;62333;51.980;5.934;2024-03-25T06:51:13;12.10;;;2.75;;
38479;SDS011;62333;51.980;5.934;2024-03-25T06:53:39;15.10;;;2.80;;
38479;SDS011;62333;51.980;5.934;2024-03-25T06:56:05;11.98;;;2.50;;
38479;SDS011;62333;51.980;5.934;2024-03-25T06:58:30;15.40;;;2.17;;
38479;SDS011;62333;51.980;5.934;2024-03-25T07:01:03;13.23;;;2.42;;
38479;SDS011;62333;51.980;5.934;2024-03-25T07:03:33;14.00;;;2.83;;
38479;SDS011;62333;51.980;5.934;2024-03-25T07:05:59;14.27;;;2.17;;
38479;SDS011;62333;51.980;5.934;2024-03-25T07:08:25;10.68;;;2.30;;
38479;SDS011;62333;51.980;5.934;2024-03-25T07:10:52;16.02;;;1.77;;
38479;SDS011;62333;51.980;5.934;2024-03-25T07:13:18;9.90;;;2.60;;
38479;SDS011;62333;51.980;5.934;2024-03-25T07:15:44;11.82;;;1.77;;
38479;SDS011;62333;51.980;5.934;2024-03-25T07:18:10;12.07;;;1.58;;
38479;SDS011;62333;51.980;5.934;2024-03-25T07:20:38;13.00;;;3.95;;
38479;SDS011;62333;51.980;5.934;2024-03-25T07:23:07;14.45;;;2.40;;
38479;SDS011;62333;51.980;5.934;2024-03-25T07:25:33;15.27;;;2.42;;
38479;SDS011;62333;51.980;5.934;2024-03-25T07:27:59;11.80;;;2.33;;
38479;SDS011;62333;51.980;5.934;2024-03-25T07:30:25;14.13;;;2.45;;
38479;SDS011;62333;51.980;5.934;2024-03-25T07:32:56;14.20;;;2.28;;
38479;SDS011;62333;51.980;5.934;2024-03-25T07:35:22;12.98;;;3.25;;
38479;SDS011;62333;51.980;5.934;2024-03-25T07:37:48;14.20;;;3.30;;
38479;SDS011;62333;51.980;5.934;2024-03-25T07:40:16;18.13;;;3.00;;
38479;SDS011;62333;51.980;5.934;2024-03-25T07:42:46;9.57;;;1.40;;
38479;SDS011;62333;51.980;5.934;2024-03-25T07:45:12;14.70;;;2.15;;
38479;SDS011;62333;51.980;5.934;2024-03-25T07:47:38;11.60;;;3.05;;
38479;SDS011;62333;51.980;5.934;2024-03-25T07:50:03;21.45;;;3.50;;
38479;SDS011;62333;51.980;5.934;2024-03-25T07:52:30;14.38;;;2.28;;
38479;SDS011;62333;51.980;5.934;2024-03-25T07:54:56;10.60;;;1.95;;
38479;SDS011;62333;51.980;5.934;2024-03-25T07:57:22;18.05;;;2.05;;
38479;SDS011;62333;51.980;5.934;2024-03-25T07:59:48;11.32;;;2.38;;
38479;SDS011;62333;51.980;5.934;2024-03-25T08:02:14;15.82;;;1.85;;
38479;SDS011;62333;51.980;5.934;2024-03-25T08:04:40;14.65;;;1.75;;
38479;SDS011;62333;51.980;5.934;2024-03-25T08:07:06;15.10;;;3.20;;
38479;SDS011;62333;51.980;5.934;2024-03-25T08:09:32;9.27;;;1.42;;
38479;SDS011;62333;51.980;5.934;2024-03-25T08:11:57;10.40;;;2.03;;
38479;SDS011;62333;51.980;5.934;2024-03-25T08:14:23;14.57;;;1.85;;
38479;SDS011;62333;51.980;5.934;2024-03-25T08:16:49;8.30;;;2.35;;
38479;SDS011;62333;51.980;5.934;2024-03-25T08:19:15;12.43;;;2.00;;
38479;SDS011;62333;51.980;5.934;2024-03-25T08:21:40;10.40;;;1.90;;
38479;SDS011;62333;51.980;5.934;2024-03-25T08:24:06;14.30;;;2.95;;
38479;SDS011;62333;51.980;5.934;2024-03-25T08:26:32;13.70;;;2.20;;
38479;SDS011;62333;51.980;5.934;2024-03-25T08:28:58;12.35;;;1.65;;
38479;SDS011;62333;51.980;5.934;2024-03-25T08:31:23;10.65;;;1.45;;
38479;SDS011;62333;51.980;5.934;2024-03-25T08:33:49;9.40;;;1.75;;
38479;SDS011;62333;51.980;5.934;2024-03-25T08:36:15;13.65;;;2.40;;
38479;SDS011;62333;51.980;5.934;2024-03-25T08:38:41;10.07;;;1.58;;
38479;SDS011;62333;51.980;5.934;2024-03-25T08:41:06;6.50;;;1.05;;
38479;SDS011;62333;51.980;5.934;2024-03-25T08:43:32;7.22;;;1.40;;
38479;SDS011;62333;51.980;5.934;2024-03-25T08:45:58;9.68;;;1.48;;
38479;SDS011;62333;51.980;5.934;2024-03-25T08:48:23;10.98;;;1.52;;
38479;SDS011;62333;51.980;5.934;2024-03-25T08:50:49;12.40;;;2.13;;
38479;SDS011;62333;51.980;5.934;2024-03-25T08:53:15;10.40;;;1.73;;
38479;SDS011;62333;51.980;5.934;2024-03-25T08:55:45;10.15;;;1.50;;
38479;SDS011;62333;51.980;5.934;2024-03-25T08:58:12;7.93;;;1.48;;
38479;SDS011;62333;51.980;5.934;2024-03-25T09:00:38;5.28;;;0.85;;
38479;SDS011;62333;51.980;5.934;2024-03-25T09:03:04;9.75;;;1.10;;
38479;SDS011;62333;51.980;5.934;2024-03-25T09:05:30;6.32;;;1.48;;
38479;SDS011;62333;51.980;5.934;2024-03-25T09:07:55;10.73;;;2.17;;
38479;SDS011;62333;51.980;5.934;2024-03-25T09:10:23;7.82;;;1.92;;
38479;SDS011;62333;51.980;5.934;2024-03-25T09:13:08;7.80;;;1.80;;
38479;SDS011;62333;51.980;5.934;2024-03-25T09:15:34;7.47;;;1.00;;
38479;SDS011;62333;51.980;5.934;2024-03-25T09:18:00;11.55;;;2.08;;
38479;SDS011;62333;51.980;5.934;2024-03-25T09:20:25;7.80;;;1.00;;
38479;SDS011;62333;51.980;5.934;2024-03-25T09:22:51;9.82;;;1.10;;
38479;SDS011;62333;51.980;5.934;2024-03-25T09:25:17;9.73;;;1.13;;
38479;SDS011;62333;51.980;5.934;2024-03-25T09:27:47;5.50;;;1.10;;
38479;SDS011;62333;51.980;5.934;2024-03-25T09:30:13;6.93;;;2.00;;
38479;SDS011;62333;51.980;5.934;2024-03-25T09:32:40;8.23;;;1.30;;
38479;SDS011;62333;51.980;5.934;2024-03-25T09:35:06;8.20;;;2.15;;
38479;SDS011;62333;51.980;5.934;2024-03-25T09:37:32;9.07;;;1.52;;
38479;SDS011;62333;51.980;5.934;2024-03-25T09:39:58;10.32;;;1.40;;
38479;SDS011;62333;51.980;5.934;2024-03-25T09:42:27;9.80;;;2.80;;
38479;SDS011;62333;51.980;5.934;2024-03-25T09:44:57;10.02;;;1.85;;
38479;SDS011;62333;51.980;5.934;2024-03-25T09:47:23;9.65;;;1.30;;
38479;SDS011;62333;51.980;5.934;2024-03-25T09:49:49;5.85;;;0.77;;
38479;SDS011;62333;51.980;5.934;2024-03-25T09:52:16;7.97;;;0.82;;
38479;SDS011;62333;51.980;5.934;2024-03-25T09:54:42;9.25;;;1.15;;
38479;SDS011;62333;51.980;5.934;2024-03-25T09:57:08;4.93;;;1.23;;
38479;SDS011;62333;51.980;5.934;2024-03-25T09:59:34;10.95;;;1.92;;
38479;SDS011;62333;51.980;5.934;2024-03-25T10:02:01;6.18;;;0.60;;
38479;SDS011;62333;51.980;5.934;2024-03-25T10:04:27;12.32;;;1.50;;
38479;SDS011;62333;51.980;5.934;2024-03-25T10:06:53;6.40;;;0.98;;
38479;SDS011;62333;51.980;5.934;2024-03-25T10:09:22;8.73;;;0.85;;
38479;SDS011;62333;51.980;5.934;2024-03-25T10:11:48;8.30;;;1.15;;
38479;SDS011;62333;51.980;5.934;2024-03-25T10:14:15;7.47;;;1.75;;
38479;SDS011;62333;51.980;5.934;2024-03-25T10:16:41;12.73;;;1.20;;
38479;SDS011;62333;51.980;5.934;2024-03-25T10:19:07;7.47;;;1.05;;
38479;SDS011;62333;51.980;5.934;2024-03-25T10:21:33;16.95;;;1.85;;
38479;SDS011;62333;51.980;5.934;2024-03-25T10:23:59;6.97;;;0.90;;
38479;SDS011;62333;51.980;5.934;2024-03-25T10:26:25;6.93;;;0.95;;
38479;SDS011;62333;51.980;5.934;2024-03-25T10:28:59;4.13;;;0.88;;
38479;SDS011;62333;51.980;5.934;2024-03-25T10:31:25;6.43;;;0.93;;
38479;SDS011;62333;51.980;5.934;2024-03-25T10:33:51;8.43;;;0.60;;
38479;SDS011;62333;51.980;5.934;2024-03-25T10:36:19;9.50;;;1.30;;
38479;SDS011;62333;51.980;5.934;2024-03-25T10:38:46;4.28;;;1.02;;
38479;SDS011;62333;51.980;5.934;2024-03-25T10:41:16;6.57;;;1.05;;
38479;SDS011;62333;51.980;5.934;2024-03-25T10:43:46;5.38;;;0.50;;
38479;SDS011;62333;51.980;5.934;2024-03-25T10:46:14;6.10;;;1.33;;
38479;SDS011;62333;51.980;5.934;2024-03-25T10:48:43;4.30;;;1.10;;
38479;SDS011;62333;51.980;5.934;2024-03-25T10:51:30;4.43;;;0.90;;
38479;SDS011;62333;51.980;5.934;2024-03-25T10:53:58;6.57;;;0.80;;
38479;SDS011;62333;51.980;5.934;2024-03-25T10:56:24;7.30;;;1.10;;
38479;SDS011;62333;51.980;5.934;2024-03-25T10:58:50;3.33;;;0.50;;
38479;SDS011;62333;51.980;5.934;2024-03-25T11:01:17;5.35;;;0.80;;
38479;SDS011;62333;51.980;5.934;2024-03-25T11:03:46;7.30;;;1.73;;
38479;SDS011;62333;51.980;5.934;2024-03-25T11:06:13;6.82;;;0.80;;
38479;SDS011;62333;51.980;5.934;2024-03-25T11:08:39;6.32;;;0.60;;
38479;SDS011;62333;51.980;5.934;2024-03-25T11:11:06;6.97;;;0.85;;
38479;SDS011;62333;51.980;5.934;2024-03-25T11:13:32;5.63;;;0.55;;
38479;SDS011;62333;51.980;5.934;2024-03-25T11:15:59;6.43;;;0.60;;
38479;SDS011;62333;51.980;5.934;2024-03-25T11:18:26;8.95;;;0.93;;
38479;SDS011;62333;51.980;5.934;2024-03-25T11:21:02;3.30;;;0.75;;
38479;SDS011;62333;51.980;5.934;2024-03-25T11:23:37;5.63;;;0.63;;
38479;SDS011;62333;51.980;5.934;2024-03-25T11:26:16;3.35;;;0.40;;
38479;SDS011;62333;51.980;5.934;2024-03-25T11:28:43;4.43;;;0.70;;
38479;SDS011;62333;51.980;5.934;2024-03-25T11:31:10;7.22;;;1.15;;
38479;SDS011;62333;51.980;5.934;2024-03-25T11:33:37;2.60;;;0.50;;
38479;SDS011;62333;51.980;5.934;2024-03-25T11:36:05;4.80;;;0.60;;
38479;SDS011;62333;51.980;5.934;2024-03-25T11:38:32;4.88;;;0.50;;
38479;SDS011;62333;51.980;5.934;2024-03-25T11:40:57;6.82;;;0.60;;
38479;SDS011;62333;51.980;5.934;2024-03-25T11:43:23;3.97;;;0.95;;
38479;SDS011;62333;51.980;5.934;2024-03-25T11:45:50;3.28;;;0.50;;
38479;SDS011;62333;51.980;5.934;2024-03-25T11:48:15;6.60;;;0.73;;
38479;SDS011;62333;51.980;5.934;2024-03-25T11:50:45;10.30;;;1.70;;
38479;SDS011;62333;51.980;5.934;2024-03-25T11:53:14;5.72;;;0.70;;
38479;SDS011;62333;51.980;5.934;2024-03-25T11:55:40;5.22;;;1.00;;
38479;SDS011;62333;51.980;5.934;2024-03-25T11:58:11;6.18;;;0.70;;
38479;SDS011;62333;51.980;5.934;2024-03-25T12:00:43;6.03;;;0.60;;
38479;SDS011;62333;51.980;5.934;2024-03-25T12:03:14;5.53;;;1.25;;
38479;SDS011;62333;51.980;5.934;2024-03-25T12:05:44;7.80;;;1.35;;
38479;SDS011;62333;51.980;5.934;2024-03-25T12:08:10;6.60;;;0.70;;
38479;SDS011;62333;51.980;5.934;2024-03-25T12:10:37;5.88;;;1.85;;
38479;SDS011;62333;51.980;5.934;2024-03-25T12:13:21;5.30;;;1.13;;
38479;SDS011;62333;51.980;5.934;2024-03-25T12:15:49;7.22;;;1.42;;
38479;SDS011;62333;51.980;5.934;2024-03-25T12:18:15;4.40;;;1.33;;
38479;SDS011;62333;51.980;5.934;2024-03-25T12:20:41;6.03;;;0.80;;
38479;SDS011;62333;51.980;5.934;2024-03-25T12:23:07;3.42;;;0.60;;
38479;SDS011;62333;51.980;5.934;2024-03-25T12:25:32;5.57;;;1.13;;
38479;SDS011;62333;51.980;5.934;2024-03-25T12:27:58;4.82;;;1.20;;
38479;SDS011;62333;51.980;5.934;2024-03-25T12:30:24;5.32;;;0.70;;
38479;SDS011;62333;51.980;5.934;2024-03-25T12:32:50;5.03;;;0.90;;
38479;SDS011;62333;51.980;5.934;2024-03-25T12:35:17;5.80;;;1.08;;
38479;SDS011;62333;51.980;5.934;2024-03-25T12:37:44;5.45;;;1.25;;
38479;SDS011;62333;51.980;5.934;2024-03-25T12:40:12;4.22;;;0.60;;
38479;SDS011;62333;51.980;5.934;2024-03-25T12:42:51;4.35;;;0.65;;
38479;SDS011;62333;51.980;5.934;2024-03-25T12:45:18;3.88;;;1.00;;
38479;SDS011;62333;51.980;5.934;2024-03-25T12:47:44;5.97;;;1.05;;
38479;SDS011;62333;51.980;5.934;2024-03-25T12:50:10;4.88;;;1.20;;
38479;SDS011;62333;51.980;5.934;2024-03-25T12:52:36;5.07;;;1.27;;
38479;SDS011;62333;51.980;5.934;2024-03-25T12:55:02;2.38;;;0.70;;
38479;SDS011;62333;51.980;5.934;2024-03-25T12:57:28;3.13;;;0.50;;
38479;SDS011;62333;51.980;5.934;2024-03-25T12:59:54;4.35;;;0.43;;
38479;SDS011;62333;51.980;5.934;2024-03-25T13:02:20;2.65;;;0.40;;
38479;SDS011;62333;51.980;5.934;2024-03-25T13:04:45;2.65;;;0.50;;
38479;SDS011;62333;51.980;5.934;2024-03-25T13:07:11;3.65;;;1.38;;
38479;SDS011;62333;51.980;5.934;2024-03-25T13:09:37;3.75;;;0.70;;
38479;SDS011;62333;51.980;5.934;2024-03-25T13:12:03;2.47;;;0.60;;
38479;SDS011;62333;51.980;5.934;2024-03-25T13:14:29;5.32;;;0.65;;
38479;SDS011;62333;51.980;5.934;2024-03-25T13:16:54;3.72;;;0.80;;
38479;SDS011;62333;51.980;5.934;2024-03-25T13:19:20;5.10;;;1.23;;
38479;SDS011;62333;51.980;5.934;2024-03-25T13:21:46;4.03;;;0.68;;
38479;SDS011;62333;51.980;5.934;2024-03-25T13:24:12;4.63;;;1.83;;
38479;SDS011;62333;51.980;5.934;2024-03-25T13:26:38;5.03;;;1.20;;
38479;SDS011;62333;51.980;5.934;2024-03-25T13:29:04;5.40;;;0.70;;
38479;SDS011;62333;51.980;5.934;2024-03-25T13:31:30;4.03;;;0.82;;
38479;SDS011;62333;51.980;5.934;2024-03-25T13:33:55;9.05;;;1.15;;
38479;SDS011;62333;51.980;5.934;2024-03-25T13:36:21;6.97;;;1.13;;
38479;SDS011;62333;51.980;5.934;2024-03-25T13:38:47;2.70;;;1.45;;
38479;SDS011;62333;51.980;5.934;2024-03-25T13:41:17;3.95;;;0.80;;
38479;SDS011;62333;51.980;5.934;2024-03-25T13:43:46;6.47;;;1.38;;
38479;SDS011;62333;51.980;5.934;2024-03-25T13:46:12;2.58;;;0.60;;
38479;SDS011;62333;51.980;5.934;2024-03-25T13:48:38;1.98;;;0.38;;
38479;SDS011;62333;51.980;5.934;2024-03-25T13:51:04;2.97;;;0.52;;
38479;SDS011;62333;51.980;5.934;2024-03-25T13:53:29;3.03;;;0.32;;
38479;SDS011;62333;51.980;5.934;2024-03-25T13:55:55;2.58;;;0.45;;
38479;SDS011;62333;51.980;5.934;2024-03-25T13:58:21;2.78;;;0.32;;
38479;SDS011;62333;51.980;5.934;2024-03-25T14:00:46;3.38;;;1.02;;
38479;SDS011;62333;51.980;5.934;2024-03-25T14:03:12;2.45;;;0.50;;
38479;SDS011;62333;51.980;5.934;2024-03-25T14:05:38;3.85;;;0.52;;
38479;SDS011;62333;51.980;5.934;2024-03-25T14:08:04;3.85;;;0.70;;
38479;SDS011;62333;51.980;5.934;2024-03-25T14:10:30;1.33;;;0.32;;
38479;SDS011;62333;51.980;5.934;2024-03-25T14:12:55;2.75;;;0.85;;
38479;SDS011;62333;51.980;5.934;2024-03-25T14:15:21;2.35;;;0.75;;
38479;SDS011;62333;51.980;5.934;2024-03-25T14:17:47;4.60;;;1.02;;
38479;SDS011;62333;51.980;5.934;2024-03-25T14:20:12;4.38;;;0.45;;
38479;SDS011;62333;51.980;5.934;2024-03-25T14:22:38;5.32;;;0.77;;
38479;SDS011;62333;51.980;5.934;2024-03-25T14:25:04;2.30;;;0.75;;
38479;SDS011;62333;51.980;5.934;2024-03-25T14:27:29;7.47;;;0.60;;
38479;SDS011;62333;51.980;5.934;2024-03-25T14:29:55;2.80;;;0.98;;
38479;SDS011;62333;51.980;5.934;2024-03-25T14:32:21;3.75;;;0.40;;
38479;SDS011;62333;51.980;5.934;2024-03-25T14:34:47;2.50;;;0.50;;
38479;SDS011;62333;51.980;5.934;2024-03-25T14:37:14;3.92;;;0.40;;